El Paso, TX (79926)

11:01 AM MDT on July 30, 2016 (GMT -0600)
Marty Robbins Park (East Side) | | Change Station

Elev 4000 ft 31.75 °N, 106.29 °W | Updated 2 minutes ago

Partly Cloudy
Partly Cloudy
84.8 °F
Feels Like 85 °F
N
0.0
Wind Variable Wind from East
Gusts 7.0 mph

Today
High -- | Low -- °F
--% Chance of Precip.
Yesterday
High -- | Low -- °F
Precip. -- in
Pressure 29.86 in
Visibility 10.0 miles
Clouds Few 5500 ft
Few 25000 ft
Heat Index 85 °F
Dew Point 60 °F
Humidity 43%
Rainfall 0.00 in
Snow Depth Not available.
6:20 AM 8:02 PM
Waning Crescent, 12% visible
METAR KELP 301651Z 13006KT 10SM FEW055 FEW250 29/15 A3009 RMK AO2 SLP110 T02890150
Pressure 29.86 in
Visibility 10.0 miles
Clouds Few 5500 ft
Few 25000 ft
Heat Index 85 °F
Dew Point 60 °F
Humidity 43%
Rainfall 0.00 in
Snow Depth Not available.
6:20 AM 8:02 PM
Waning Crescent, 12% visible
METAR KELP 301651Z 13006KT 10SM FEW055 FEW250 29/15 A3009 RMK AO2 SLP110 T02890150

10-Day Weather Forecast

Almanac

Astronomy

Jul. 30, 2016 Rise Set
Actual Time
Civil Twilight
Nautical Twilight
Astronomical Twilight
Moon
Length of Visible Light
Length of Day
Tomorrow will be .
, % of the Moon is Illuminated

Today's Extremes

State Highs State Lows

Community

WunderPhotos

Upload Photos

1,928,598 photos uploaded!

WunderBlog® & News

Nearby

Air Quality

  Air Quality AQ Index Pollutant
Not available.

Snow Depth

Station Depth Elevation

Earthquake Activity

City Distance Mag. Time & Date
Minimum magnitude displayed is 2.5.

Coastal Water Temperatures

Place Temperature

Stations

Nearby Weather Stations

Station Location Temp. Windchill Dew Point Humidity Wind Precip. Elev Updated Type
                   

Watches & Warnings

There are currently no watches in effect.